Time;durP1;ratioP1;P1;durP2;ratioP2;P2;SDS_P1;SDS_P2;PMS_P1;PMS_P2;Temp;Humidity;BMP_temperature;BMP_pressure;BME280_temperature;BME280_humidity;BME280_pressure;Samples;Min_cycle;Max_cycle;Signal;HPM_P1;HPM_P2
2023/09/22 00:00:03;;;;;;;2.25;1.10;;;;;;;23.43;100.00;99431.91;5011634;28;20073;-43
2023/09/22 00:02:30;;;;;;;2.55;1.02;;;;;;;23.45;100.00;99435.75;5017629;28;20134;-45
2023/09/22 00:04:57;;;;;;;1.90;1.08;;;;;;;23.47;100.00;99432.38;5013512;28;20049;-47
2023/09/22 00:07:24;;;;;;;3.28;1.23;;;;;;;23.51;100.00;99449.84;5015345;28;20062;-47
2023/09/22 00:09:51;;;;;;;2.08;1.02;;;;;;;23.47;100.00;99443.72;5017925;28;20041;-44
2023/09/22 00:12:18;;;;;;;1.95;0.98;;;;;;;23.48;100.00;99448.06;5017740;28;20077;-44
2023/09/22 00:14:45;;;;;;;1.67;1.08;;;;;;;23.59;100.00;99442.25;5026847;28;20083;-44
2023/09/22 00:17:12;;;;;;;6.35;1.45;;;;;;;23.60;100.00;99446.63;5015100;28;20041;-45
2023/09/22 00:19:38;;;;;;;2.80;1.00;;;;;;;23.56;100.00;99446.91;5009041;28;20050;-46
2023/09/22 00:22:05;;;;;;;1.83;0.88;;;;;;;23.57;100.00;99442.03;5009844;28;20505;-43
2023/09/22 00:24:32;;;;;;;1.75;0.82;;;;;;;23.57;100.00;99456.22;5008604;28;20085;-47
2023/09/22 00:26:58;;;;;;;1.88;0.88;;;;;;;23.51;100.00;99447.78;5011497;28;20706;-45
2023/09/22 00:29:25;;;;;;;1.80;0.90;;;;;;;23.51;100.00;99461.19;5015600;28;20046;-44
2023/09/22 00:31:51;;;;;;;3.30;1.20;;;;;;;23.50;100.00;99453.97;5008663;28;20132;-43
2023/09/22 00:34:18;;;;;;;2.50;1.05;;;;;;;23.49;100.00;99463.81;5008638;28;20141;-45
2023/09/22 00:36:45;;;;;;;4.75;1.83;;;;;;;23.50;100.00;99471.00;5009529;28;20101;-44
2023/09/22 00:39:11;;;;;;;7.07;1.40;;;;;;;23.48;100.00;99467.94;5008753;28;20065;-43
2023/09/22 00:41:38;;;;;;;7.20;1.13;;;;;;;23.47;100.00;99470.00;5009169;28;20073;-43
2023/09/22 00:44:05;;;;;;;2.50;0.98;;;;;;;23.45;100.00;99486.78;5008575;28;20076;-47
2023/09/22 00:46:32;;;;;;;4.90;1.05;;;;;;;23.45;100.00;99478.28;5014751;28;20050;-43
2023/09/22 00:48:59;;;;;;;3.20;1.00;;;;;;;23.44;100.00;99484.47;5008521;28;20536;-43
2023/09/22 00:51:26;;;;;;;1.92;0.88;;;;;;;23.45;100.00;99483.16;5008821;28;20136;-45
2023/09/22 00:53:53;;;;;;;2.92;1.30;;;;;;;23.45;100.00;99481.13;5008425;28;20061;-43
2023/09/22 00:56:22;;;;;;;5.78;1.05;;;;;;;23.46;100.00;99484.72;5012297;28;20452;-43
2023/09/22 00:58:51;;;;;;;1.70;0.93;;;;;;;23.45;100.00;99491.69;5012318;28;20053;-47
2023/09/22 01:01:20;;;;;;;3.70;0.90;;;;;;;23.42;100.00;99487.84;5012303;28;20479;-43
2023/09/22 01:03:51;;;;;;;2.22;1.05;;;;;;;23.43;100.00;99486.56;5016176;28;20046;-43
2023/09/22 01:06:18;;;;;;;2.05;1.02;;;;;;;23.44;100.00;99498.66;5011980;28;20566;-43
2023/09/22 01:08:45;;;;;;;3.47;1.13;;;;;;;23.43;100.00;99495.09;5012108;28;20394;-43
2023/09/22 01:11:11;;;;;;;3.53;1.30;;;;;;;23.42;100.00;99501.28;5013841;28;20115;-43
2023/09/22 01:13:38;;;;;;;2.28;1.10;;;;;;;23.43;100.00;99495.09;5011773;28;20050;-45
2023/09/22 01:16:05;;;;;;;1.58;1.00;;;;;;;23.43;100.00;99503.59;5021829;28;20534;-42
2023/09/22 01:18:31;;;;;;;2.40;1.13;;;;;;;23.40;100.00;99495.38;5020708;28;20072;-43
2023/09/22 01:20:59;;;;;;;1.92;1.25;;;;;;;23.40;100.00;99486.84;5016334;28;20518;-43
2023/09/22 01:23:25;;;;;;;1.95;1.10;;;;;;;23.42;100.00;99487.84;5020349;28;20073;-45
2023/09/22 01:25:52;;;;;;;3.95;1.60;;;;;;;23.42;100.00;99499.19;5012770;28;20089;-44
2023/09/22 01:28:18;;;;;;;2.47;1.02;;;;;;;23.40;100.00;99512.38;5011994;28;20614;-45
2023/09/22 01:30:45;;;;;;;3.40;0.95;;;;;;;23.39;100.00;99505.94;5013182;28;20045;-43
2023/09/22 01:33:12;;;;;;;2.67;0.90;;;;;;;23.40;100.00;99515.22;5012089;28;20124;-44
2023/09/22 01:35:38;;;;;;;1.80;1.05;;;;;;;23.39;100.00;99508.03;5011377;28;20108;-45
2023/09/22 01:38:12;;;;;;;1.70;1.08;;;;;;;23.38;100.00;99512.91;5011577;28;20049;-44
2023/09/22 01:40:42;;;;;;;3.53;1.15;;;;;;;23.41;100.00;99511.84;5011812;28;20053;-44
2023/09/22 01:43:10;;;;;;;2.35;1.33;;;;;;;23.39;100.00;99505.94;5012062;28;20053;-45
2023/09/22 01:45:37;;;;;;;4.38;1.10;;;;;;;23.38;100.00;99518.59;5020208;28;20106;-44
2023/09/22 01:48:05;;;;;;;3.10;0.95;;;;;;;23.39;100.00;99516.53;5028008;28;20061;-45
2023/09/22 01:50:40;;;;;;;5.18;1.40;;;;;;;23.37;100.00;99519.91;5018773;28;20048;-52
2023/09/22 01:53:09;;;;;;;2.92;1.10;;;;;;;23.38;100.00;99535.59;5011479;28;20052;-43
2023/09/22 01:55:37;;;;;;;2.55;1.10;;;;;;;23.37;100.00;99539.75;5015727;28;20049;-43
2023/09/22 01:58:04;;;;;;;2.30;1.38;;;;;;;23.38;100.00;99540.50;5012476;28;20055;-44
2023/09/22 02:00:33;;;;;;;3.60;1.50;;;;;;;23.38;100.00;99551.84;5011401;28;20145;-45
2023/09/22 02:03:00;;;;;;;4.32;1.30;;;;;;;23.36;100.00;99562.97;5011188;28;20128;-43
2023/09/22 02:05:28;;;;;;;3.67;1.45;;;;;;;23.38;100.00;99560.34;5010708;28;20078;-43
2023/09/22 02:07:54;;;;;;;2.20;1.15;;;;;;;23.37;100.00;99559.59;5020104;28;20049;-43
2023/09/22 02:10:21;;;;;;;1.88;1.00;;;;;;;23.37;100.00;99559.59;5020608;28;20045;-44
2023/09/22 02:12:47;;;;;;;2.40;1.10;;;;;;;23.34;100.00;99562.72;5019952;28;20438;-43
2023/09/22 02:15:14;;;;;;;3.53;1.27;;;;;;;23.34;100.00;99562.72;5025717;28;20057;-46
2023/09/22 02:17:42;;;;;;;4.10;1.20;;;;;;;23.34;100.00;99569.16;5020477;28;20069;-43
2023/09/22 02:20:22;;;;;;;2.60;0.90;;;;;;;23.34;100.00;99557.06;5013305;28;20053;-45
2023/09/22 02:22:51;;;;;;;1.90;1.00;;;;;;;23.36;100.00;99568.63;5015909;28;20058;-45
2023/09/22 02:25:19;;;;;;;3.22;1.08;;;;;;;23.35;100.00;99570.69;5016778;28;20046;-44
2023/09/22 02:27:51;;;;;;;2.90;1.00;;;;;;;23.34;100.00;99562.72;5010299;28;20540;-43
2023/09/22 02:30:18;;;;;;;2.15;1.10;;;;;;;23.32;100.00;99562.50;5014887;28;20045;-45
2023/09/22 02:32:49;;;;;;;1.48;0.88;;;;;;;23.32;100.00;99565.34;5021865;28;20081;-41
2023/09/22 02:35:23;;;;;;;2.05;1.23;;;;;;;23.33;100.00;99564.81;5010738;28;20117;-43
2023/09/22 02:37:50;;;;;;;2.42;1.20;;;;;;;23.33;100.00;99564.81;5010424;28;20516;-43
2023/09/22 02:40:16;;;;;;;3.00;0.80;;;;;;;23.30;100.00;99574.38;5010599;28;20053;-43
2023/09/22 02:42:43;;;;;;;1.58;0.90;;;;;;;23.30;100.00;99565.88;5013779;28;20538;-44
2023/09/22 02:45:11;;;;;;;3.42;0.93;;;;;;;23.31;100.00;99569.44;5010305;28;20054;-43
2023/09/22 02:47:41;;;;;;;2.30;1.00;;;;;;;23.33;100.00;99559.13;5027586;28;20049;-44
2023/09/22 02:50:10;;;;;;;2.92;1.10;;;;;;;23.31;100.00;99560.94;5018243;28;20046;-43
2023/09/22 02:52:38;;;;;;;1.75;1.00;;;;;;;23.33;100.00;99569.69;5010823;28;20046;-45
2023/09/22 02:55:09;;;;;;;2.40;1.23;;;;;;;23.31;100.00;99566.63;5010152;28;20078;-45
2023/09/22 02:57:36;;;;;;;2.05;1.10;;;;;;;23.32;100.00;99573.84;5010162;28;20046;-43
2023/09/22 03:00:14;;;;;;;1.85;0.80;;;;;;;23.32;100.00;99571.75;5013210;28;20769;-43
2023/09/22 03:02:42;;;;;;;1.38;1.00;;;;;;;23.33;100.00;99579.00;5013935;28;20060;-45
2023/09/22 03:05:09;;;;;;;3.10;1.10;;;;;;;23.32;100.00;99579.50;5013619;28;20072;-45
2023/09/22 03:07:36;;;;;;;1.90;1.10;;;;;;;23.33;100.00;99575.38;5015712;28;20057;-46
2023/09/22 03:10:06;;;;;;;2.78;0.98;;;;;;;23.32;100.00;99568.19;5012265;28;20096;-43
2023/09/22 03:12:34;;;;;;;2.50;1.05;;;;;;;23.31;100.00;99569.44;5014483;28;20038;-43
2023/09/22 03:15:01;;;;;;;1.85;1.00;;;;;;;23.33;100.00;99569.69;5009112;28;20049;-47
2023/09/22 03:17:27;;;;;;;2.30;1.05;;;;;;;23.31;100.00;99575.91;5015362;28;20046;-44
2023/09/22 03:19:54;;;;;;;1.50;1.08;;;;;;;23.30;100.00;99571.53;5017970;28;20136;-46
2023/09/22 03:22:22;;;;;;;2.05;1.05;;;;;;;23.33;100.00;99578.22;5013436;28;20069;-44
2023/09/22 03:24:49;;;;;;;2.67;1.00;;;;;;;23.30;100.00;99576.44;5017384;28;20053;-45
2023/09/22 03:27:16;;;;;;;2.67;1.20;;;;;;;23.30;100.00;99570.75;5010084;28;20052;-44
2023/09/22 03:29:43;;;;;;;3.50;1.02;;;;;;;23.31;100.00;99572.28;5010415;28;20461;-45
2023/09/22 03:32:10;;;;;;;2.80;1.00;;;;;;;23.32;100.00;99576.69;5011336;28;20069;-46
2023/09/22 03:34:36;;;;;;;5.22;0.90;;;;;;;23.32;100.00;99571.00;5018188;28;20047;-44
2023/09/22 03:37:08;;;;;;;3.72;1.02;;;;;;;23.33;100.00;99559.13;5017603;28;20057;-47
2023/09/22 03:39:35;;;;;;;3.72;0.90;;;;;;;23.32;100.00;99551.91;5010039;28;20046;-43
2023/09/22 03:42:02;;;;;;;1.95;1.00;;;;;;;23.31;100.00;99564.56;5009479;28;20071;-44
2023/09/22 03:44:29;;;;;;;1.92;1.10;;;;;;;23.32;100.00;99566.09;5009292;28;20843;-45
2023/09/22 03:46:55;;;;;;;3.50;1.20;;;;;;;23.33;100.00;99566.88;5022330;28;20057;-45
2023/09/22 03:49:22;;;;;;;2.45;0.80;;;;;;;23.33;100.00;99567.66;5012529;28;20056;-43
2023/09/22 03:51:49;;;;;;;2.33;1.08;;;;;;;23.30;100.00;99565.09;5015899;28;20092;-45
2023/09/22 03:54:15;;;;;;;1.42;1.00;;;;;;;23.32;100.00;99568.19;5009140;28;20518;-44
2023/09/22 03:56:42;;;;;;;2.45;1.20;;;;;;;23.30;100.00;99567.94;5017345;28;20054;-44
2023/09/22 03:59:11;;;;;;;3.88;0.90;;;;;;;23.31;100.00;99560.94;5009530;28;20089;-47
2023/09/22 04:01:38;;;;;;;1.50;0.80;;;;;;;23.30;100.00;99562.25;5010666;28;20042;-46
2023/09/22 04:04:05;;;;;;;4.63;1.30;;;;;;;23.32;100.00;99565.34;5016490;28;20499;-45
2023/09/22 04:06:32;;;;;;;2.10;1.10;;;;;;;23.30;100.00;99570.75;5008529;28;20427;-47
2023/09/22 04:09:05;;;;;;;2.38;0.88;;;;;;;23.28;100.00;99565.63;5009346;28;20056;-44
2023/09/22 04:11:32;;;;;;;2.72;1.00;;;;;;;23.28;100.00;99568.47;5009168;28;20467;-45
2023/09/22 04:13:58;;;;;;;3.22;1.20;;;;;;;23.28;100.00;99562.78;5009324;28;20131;-44
2023/09/22 04:16:24;;;;;;;2.58;0.70;;;;;;;23.28;100.00;99565.63;5021412;28;20049;-46
2023/09/22 04:18:54;;;;;;;2.72;1.00;;;;;;;23.29;100.00;99569.97;5010410;28;20269;-43
2023/09/22 04:21:22;;;;;;;2.13;0.98;;;;;;;23.29;100.00;99574.91;5008945;28;20074;-45
2023/09/22 04:23:57;;;;;;;1.60;0.90;;;;;;;23.27;100.00;99574.66;5012725;28;20058;-45
2023/09/22 04:26:29;;;;;;;1.88;0.98;;;;;;;23.25;100.00;99563.84;5019639;28;20095;-43
2023/09/22 04:28:56;;;;;;;2.38;0.98;;;;;;;23.26;100.00;99573.13;5017615;28;20054;-43
2023/09/22 04:31:24;;;;;;;1.98;0.80;;;;;;;23.26;100.00;99570.28;5008377;28;20048;-42
2023/09/22 04:33:52;;;;;;;4.03;1.10;;;;;;;23.24;100.00;99572.88;5008906;28;20060;-43
2023/09/22 04:36:21;;;;;;;3.25;1.02;;;;;;;23.24;100.00;99567.22;5011096;28;20140;-44
2023/09/22 04:38:52;;;;;;;2.05;1.08;;;;;;;23.24;100.00;99570.06;5012124;28;20074;-45
2023/09/22 04:41:21;;;;;;;1.85;0.82;;;;;;;23.25;100.00;99575.19;5012072;28;20045;-43
2023/09/22 04:43:48;;;;;;;2.65;1.25;;;;;;;23.27;100.00;99577.50;5008641;28;20049;-43
2023/09/22 04:46:15;;;;;;;2.70;0.85;;;;;;;23.29;100.00;99578.50;5019933;28;20041;-44
2023/09/22 04:48:42;;;;;;;2.40;0.95;;;;;;;23.27;100.00;99588.84;5011883;28;20112;-44
2023/09/22 04:51:09;;;;;;;2.30;1.10;;;;;;;23.26;100.00;99593.72;5007631;28;20042;-44
2023/09/22 04:53:36;;;;;;;3.10;1.05;;;;;;;23.24;100.00;99606.91;5009440;28;20050;-43
2023/09/22 04:56:04;;;;;;;2.08;0.90;;;;;;;23.26;100.00;99610.75;5017427;28;20103;-45
2023/09/22 04:58:31;;;;;;;3.35;1.05;;;;;;;23.27;100.00;99617.97;5013310;28;20050;-42
2023/09/22 05:01:01;;;;;;;3.42;1.10;;;;;;;23.26;100.00;99624.16;5010222;28;20089;-46
2023/09/22 05:03:28;;;;;;;1.10;0.70;;;;;;;23.25;100.00;99612.06;5013530;28;20424;-44
2023/09/22 05:06:05;;;;;;;1.48;0.90;;;;;;;23.25;100.00;99605.63;5008057;28;20056;-43
2023/09/22 05:08:33;;;;;;;1.33;0.90;;;;;;;23.23;100.00;99597.66;5008351;28;20133;-44
2023/09/22 05:11:07;;;;;;;2.22;0.77;;;;;;;23.24;100.00;99590.69;5020936;28;20049;-48
2023/09/22 05:13:35;;;;;;;2.15;0.90;;;;;;;23.24;100.00;99589.91;5015728;28;20051;-46
2023/09/22 05:16:06;;;;;;;2.83;1.00;;;;;;;23.24;100.00;99587.06;5020434;28;20042;-45
2023/09/22 05:18:34;;;;;;;2.00;1.13;;;;;;;23.25;100.00;99586.53;5013196;28;20063;-43
2023/09/22 05:21:01;;;;;;;2.95;1.00;;;;;;;23.24;100.00;99612.56;5016481;28;20053;-43
2023/09/22 05:23:29;;;;;;;2.53;1.17;;;;;;;23.22;100.00;99615.94;5008149;28;20453;-43
2023/09/22 05:25:56;;;;;;;1.30;1.00;;;;;;;23.25;100.00;99612.06;5008031;28;20077;-45
2023/09/22 05:28:23;;;;;;;3.35;1.20;;;;;;;23.24;100.00;99604.84;5010636;28;20053;-44
2023/09/22 05:30:49;;;;;;;1.88;1.00;;;;;;;23.25;100.00;99599.97;5009993;28;20054;-45
2023/09/22 05:33:16;;;;;;;2.58;1.13;;;;;;;23.22;100.00;99604.59;5009604;28;20056;-44
2023/09/22 05:35:43;;;;;;;2.30;0.82;;;;;;;23.23;100.00;99619.56;5015793;28;20132;-45
2023/09/22 05:38:11;;;;;;;0.85;0.75;;;;;;;23.21;100.00;99611.56;5008088;28;20112;-46
2023/09/22 05:40:38;;;;;;;2.75;0.90;;;;;;;23.21;100.00;99608.75;5008196;28;20050;-43
2023/09/22 05:43:05;;;;;;;3.08;1.00;;;;;;;23.22;100.00;99609.53;5017728;28;20050;-45
2023/09/22 05:45:31;;;;;;;1.60;0.75;;;;;;;23.19;100.00;99600.00;5025430;28;20041;-44
2023/09/22 05:47:58;;;;;;;2.30;0.80;;;;;;;23.20;100.00;99610.06;5016497;28;20107;-44
2023/09/22 05:50:25;;;;;;;2.10;1.15;;;;;;;23.21;100.00;99593.78;5015927;28;20393;-44
2023/09/22 05:52:51;;;;;;;3.90;1.00;;;;;;;23.21;100.00;99605.13;5012992;28;20046;-43
2023/09/22 05:55:19;;;;;;;2.60;0.98;;;;;;;23.21;100.00;99607.97;5010062;28;20136;-44
2023/09/22 05:57:50;;;;;;;4.72;1.95;;;;;;;23.21;100.00;99607.97;5017577;28;20551;-43
2023/09/22 06:00:17;;;;;;;1.98;0.90;;;;;;;23.20;100.00;99600.75;5017478;28;20042;-47
2023/09/22 06:02:51;;;;;;;2.20;1.10;;;;;;;23.20;100.00;99597.94;5017303;28;20050;-44
2023/09/22 06:05:24;;;;;;;1.95;1.08;;;;;;;23.21;100.00;99607.97;5013503;28;20046;-43
2023/09/22 06:07:54;;;;;;;1.90;1.00;;;;;;;23.21;100.00;99620.09;5016693;28;20049;-47
2023/09/22 06:10:22;;;;;;;2.15;1.00;;;;;;;23.20;100.00;99634.78;5012933;28;20069;-45
2023/09/22 06:12:50;;;;;;;1.02;0.68;;;;;;;23.18;100.00;99638.16;5018162;28;20061;-46
2023/09/22 06:15:16;;;;;;;2.78;0.80;;;;;;;23.21;100.00;99642.00;5015183;28;20046;-42
2023/09/22 06:17:43;;;;;;;2.85;0.70;;;;;;;23.20;100.00;99644.06;5013643;28;20081;-43
2023/09/22 06:20:15;;;;;;;1.17;0.93;;;;;;;23.21;100.00;99639.16;5011408;28;20167;-43
2023/09/22 06:22:43;;;;;;;1.65;0.82;;;;;;;23.23;100.00;99634.50;5012599;28;20547;-44
2023/09/22 06:25:13;;;;;;;2.88;1.10;;;;;;;23.15;100.00;99621.44;5013746;28;20053;-47
2023/09/22 06:27:46;;;;;;;4.93;1.42;;;;;;;23.18;100.00;99614.69;5019340;28;20053;-44
2023/09/22 06:30:15;;;;;;;4.05;1.20;;;;;;;23.03;100.00;99623.63;5013488;28;20056;-49
2023/09/22 06:32:44;;;;;;;4.75;1.35;;;;;;;23.12;100.00;99642.34;5014084;28;20103;-45
2023/09/22 06:35:11;;;;;;;3.25;1.20;;;;;;;23.15;100.00;99644.13;5017317;28;20080;-45
2023/09/22 06:37:39;;;;;;;4.30;1.40;;;;;;;22.87;100.00;99647.16;5025421;28;20046;-44
2023/09/22 06:40:11;;;;;;;4.30;1.35;;;;;;;22.65;100.00;99661.50;5016934;28;20045;-46
2023/09/22 06:42:40;;;;;;;4.53;1.35;;;;;;;22.29;100.00;99671.22;5030025;28;20049;-45
2023/09/22 06:45:11;;;;;;;2.67;1.30;;;;;;;22.69;100.00;99675.38;5022054;28;20111;-45
2023/09/22 06:47:38;;;;;;;5.47;1.33;;;;;;;22.17;100.00;99663.31;5019743;28;20054;-45
2023/09/22 06:50:08;;;;;;;5.57;1.40;;;;;;;22.49;100.00;99658.78;5023584;28;20099;-45
2023/09/22 06:52:36;;;;;;;6.18;1.42;;;;;;;22.02;100.00;99658.75;5022331;28;20050;-44
2023/09/22 06:55:03;;;;;;;8.50;1.90;;;;;;;22.67;100.00;99666.63;5020451;28;20132;-47
2023/09/22 06:57:32;;;;;;;5.03;1.00;;;;;;;22.73;100.00;99658.88;5028292;28;20111;-45
2023/09/22 06:59:59;;;;;;;6.45;1.35;;;;;;;22.45;100.00;99658.28;5029726;28;20073;-46
2023/09/22 07:02:26;;;;;;;7.05;1.80;;;;;;;22.49;100.00;99664.44;5019295;28;20052;-43
2023/09/22 07:04:53;;;;;;;1.70;1.00;;;;;;;22.18;100.00;99649.41;5023031;28;20123;-44
2023/09/22 07:07:23;;;;;;;7.03;1.40;;;;;;;21.98;100.00;99660.31;5011239;28;20050;-46
2023/09/22 07:09:49;;;;;;;5.70;1.45;;;;;;;22.04;100.00;99652.56;5010231;28;20077;-48
2023/09/22 07:12:16;;;;;;;4.53;1.10;;;;;;;22.07;100.00;99646.63;5014207;28;20067;-45
2023/09/22 07:14:42;;;;;;;4.50;1.40;;;;;;;22.25;100.00;99656.59;5011919;28;20050;-48
2023/09/22 07:17:09;;;;;;;7.93;1.60;;;;;;;21.90;100.00;99648.75;5024228;28;20156;-47
2023/09/22 07:19:39;;;;;;;3.67;1.33;;;;;;;22.10;100.00;99658.97;5017969;28;20041;-45
2023/09/22 07:22:08;;;;;;;4.97;2.22;;;;;;;21.89;100.00;99667.03;5011603;28;20141;-44
2023/09/22 07:24:35;;;;;;;4.75;1.67;;;;;;;21.52;100.00;99672.25;5010091;28;20137;-46
2023/09/22 07:27:02;;;;;;;7.63;1.77;;;;;;;22.07;100.00;99680.59;5011078;28;20058;-45
2023/09/22 07:29:28;;;;;;;3.40;1.40;;;;;;;21.91;100.00;99692.72;5009830;28;20076;-43
2023/09/22 07:31:55;;;;;;;5.65;1.20;;;;;;;22.01;100.00;99696.81;5019319;28;20407;-44
2023/09/22 07:34:22;;;;;;;2.63;1.23;;;;;;;22.33;100.00;99704.94;5018534;28;20077;-46
2023/09/22 07:36:49;;;;;;;7.05;1.58;;;;;;;21.59;100.00;99702.06;5009401;28;20088;-49
2023/09/22 07:39:15;;;;;;;4.60;1.25;;;;;;;22.01;100.00;99716.63;5009646;28;20046;-47
2023/09/22 07:41:42;;;;;;;5.78;1.55;;;;;;;22.01;100.00;99713.03;5007814;28;20050;-47
2023/09/22 07:44:09;;;;;;;7.45;2.33;;;;;;;22.23;100.00;99715.00;5009366;28;20088;-49
2023/09/22 07:46:35;;;;;;;4.15;1.40;;;;;;;22.14;100.00;99716.84;5017234;28;20050;-48
2023/09/22 07:49:02;;;;;;;5.25;1.50;;;;;;;22.25;100.00;99706.75;5023655;28;20104;-47
2023/09/22 07:51:29;;;;;;;6.63;1.42;;;;;;;22.24;100.00;99713.72;5017532;28;20076;-45
2023/09/22 07:53:56;;;;;;;7.50;1.20;;;;;;;22.32;100.00;99714.72;5013432;28;20053;-44
2023/09/22 07:56:23;;;;;;;3.25;1.25;;;;;;;22.38;100.00;99715.47;5010573;28;20054;-44
2023/09/22 07:58:49;;;;;;;6.50;1.13;;;;;;;22.20;100.00;99713.97;5018603;28;20144;-47
2023/09/22 08:01:36;;;;;;;3.92;1.20;;;;;;;22.36;100.00;99709.56;5010232;28;20045;-46
2023/09/22 08:04:03;;;;;;;5.53;1.25;;;;;;;22.45;100.00;99712.09;5015660;28;20115;-45
2023/09/22 08:06:31;;;;;;;4.72;1.23;;;;;;;22.38;100.00;99715.47;5009082;28;20064;-41
2023/09/22 08:08:58;;;;;;;6.05;1.20;;;;;;;22.51;100.00;99718.50;5015010;28;20104;-45
2023/09/22 08:11:26;;;;;;;5.30;0.95;;;;;;;22.46;100.00;99722.91;5020385;28;20049;-43
2023/09/22 08:13:58;;;;;;;4.15;1.17;;;;;;;22.49;100.00;99723.91;5018451;28;20129;-42
2023/09/22 08:16:32;;;;;;;5.80;1.40;;;;;;;22.56;100.00;99729.03;5020875;28;20060;-42
2023/09/22 08:19:11;;;;;;;5.80;1.55;;;;;;;22.59;100.00;99737.25;5021451;28;20802;-43
2023/09/22 08:21:38;;;;;;;3.80;1.10;;;;;;;22.56;100.00;99734.69;5015532;28;20060;-43
2023/09/22 08:24:07;;;;;;;6.43;1.10;;;;;;;22.52;100.00;99737.03;5010323;28;20073;-43
2023/09/22 08:26:34;;;;;;;3.55;1.15;;;;;;;22.57;100.00;99745.50;5011012;28;20838;-43
2023/09/22 08:29:01;;;;;;;6.10;1.30;;;;;;;22.63;100.00;99739.78;5009716;28;20049;-44
2023/09/22 08:31:29;;;;;;;6.28;1.30;;;;;;;22.52;100.00;99740.63;5012374;28;20077;-44
2023/09/22 08:33:56;;;;;;;6.43;1.17;;;;;;;22.55;100.00;99747.31;5009403;28;20056;-45
2023/09/22 08:36:23;;;;;;;3.65;0.90;;;;;;;22.49;100.00;99755.06;5008379;28;20073;-42
2023/09/22 08:38:51;;;;;;;1.98;0.80;;;;;;;22.50;100.00;99743.22;5014727;28;20137;-43
2023/09/22 08:41:18;;;;;;;2.42;1.10;;;;;;;22.51;100.00;99753.25;5016305;28;20065;-43
2023/09/22 08:43:45;;;;;;;5.60;1.50;;;;;;;22.47;100.00;99740.69;5013078;28;20422;-43
2023/09/22 08:46:12;;;;;;;4.35;1.13;;;;;;;22.46;100.00;99741.94;5025188;28;20561;-43
2023/09/22 08:48:39;;;;;;;5.25;1.17;;;;;;;22.46;100.00;99724.94;5012419;28;20058;-43
2023/09/22 08:51:06;;;;;;;4.57;1.33;;;;;;;22.42;100.00;99747.13;5014574;28;20045;-43
2023/09/22 08:53:32;;;;;;;4.00;1.40;;;;;;;22.41;100.00;99732.19;5018973;28;20123;-42
2023/09/22 08:55:59;;;;;;;6.57;1.20;;;;;;;22.24;100.00;99734.28;5015043;28;20136;-45
2023/09/22 08:58:25;;;;;;;3.35;1.30;;;;;;;22.24;100.00;99728.63;5019567;28;20697;-44
2023/09/22 09:00:52;;;;;;;4.68;1.10;;;;;;;22.25;100.00;99727.34;5009532;28;20054;-44
2023/09/22 09:03:20;;;;;;;3.00;1.00;;;;;;;22.20;100.00;99725.31;5012415;28;20657;-44
2023/09/22 09:05:49;;;;;;;5.20;2.17;;;;;;;22.25;100.00;99721.69;5018224;28;20052;-42
2023/09/22 09:08:18;;;;;;;3.88;1.50;;;;;;;22.26;100.00;99722.44;5010890;28;20111;-42
2023/09/22 09:10:47;;;;;;;4.85;1.52;;;;;;;22.31;100.00;99716.03;5008094;28;20104;-43
2023/09/22 09:13:20;;;;;;;5.05;1.33;;;;;;;22.33;100.00;99705.72;5009006;28;20054;-43
2023/09/22 09:15:49;;;;;;;2.50;1.30;;;;;;;22.41;100.00;99706.69;5015735;28;20049;-44
2023/09/22 09:18:17;;;;;;;4.13;1.10;;;;;;;22.45;100.00;99709.25;5012026;28;20068;-42
2023/09/22 09:20:47;;;;;;;4.25;1.20;;;;;;;22.53;100.00;99707.41;5011471;28;20532;-43
2023/09/22 09:23:19;;;;;;;5.63;1.40;;;;;;;22.60;100.00;99706.84;5013649;28;20045;-43
2023/09/22 09:25:50;;;;;;;5.53;1.20;;;;;;;22.61;100.00;99714.81;5023714;28;20049;-42
2023/09/22 09:28:18;;;;;;;4.22;1.05;;;;;;;22.63;100.00;99708.63;5011937;28;20050;-43
2023/09/22 09:30:57;;;;;;;2.40;0.95;;;;;;;22.65;100.00;99709.66;5011694;28;20281;-45
2023/09/22 09:33:26;;;;;;;3.53;1.08;;;;;;;22.68;100.00;99705.75;5011509;28;20682;-45
2023/09/22 09:35:54;;;;;;;4.10;1.15;;;;;;;22.69;100.00;99704.50;5018733;28;20054;-43
2023/09/22 09:38:27;;;;;;;6.38;1.20;;;;;;;22.70;100.00;99710.91;5011640;28;20543;-44
2023/09/22 09:40:55;;;;;;;4.65;0.95;;;;;;;22.72;100.00;99708.31;5012756;28;20137;-42
2023/09/22 09:43:22;;;;;;;5.35;1.67;;;;;;;22.74;100.00;99702.91;5021527;28;20491;-43
2023/09/22 09:45:52;;;;;;;3.33;1.10;;;;;;;22.78;100.00;99703.41;5020537;28;20091;-45
2023/09/22 09:48:19;;;;;;;3.70;1.10;;;;;;;22.81;100.00;99716.53;5011571;28;20493;-44
2023/09/22 09:50:51;;;;;;;3.63;1.20;;;;;;;22.76;100.00;99720.13;5010958;28;20050;-42
2023/09/22 09:53:27;;;;;;;6.30;1.70;;;;;;;22.67;100.00;99726.91;5010977;28;20764;-43
2023/09/22 09:55:59;;;;;;;7.25;1.33;;;;;;;22.62;100.00;99726.94;5010973;28;20060;-42
2023/09/22 09:58:31;;;;;;;4.43;1.20;;;;;;;22.66;100.00;99727.41;5011231;28;20049;-42
2023/09/22 10:00:59;;;;;;;7.22;1.55;;;;;;;22.72;100.00;99728.16;5011083;28;20049;-43
2023/09/22 10:03:27;;;;;;;5.30;1.25;;;;;;;22.75;100.00;99739.19;5013440;28;20053;-43
2023/09/22 10:05:56;;;;;;;4.72;1.35;;;;;;;22.77;100.00;99727.34;5017060;28;20061;-43
2023/09/22 10:08:25;;;;;;;7.03;1.20;;;;;;;22.68;100.00;99739.00;5012523;28;20050;-43
2023/09/22 10:10:58;;;;;;;3.88;1.17;;;;;;;22.58;100.00;99738.53;5010749;28;20050;-44
2023/09/22 10:13:26;;;;;;;6.93;1.20;;;;;;;22.47;100.00;99732.19;5010712;28;20069;-41
2023/09/22 10:15:57;;;;;;;7.70;1.52;;;;;;;22.45;100.00;99734.75;5017780;28;20140;-46
2023/09/22 10:18:48;;;;;;;12.93;1.45;;;;;;;22.43;100.00;99740.16;5011055;28;20046;-44
2023/09/22 10:21:33;;;;;;;7.22;1.17;;;;;;;22.41;100.00;99734.25;5018247;28;20085;-42
2023/09/22 10:24:18;;;;;;;7.30;1.13;;;;;;;22.41;100.00;99735.00;5011512;28;20045;-45
2023/09/22 10:26:53;;;;;;;4.32;1.02;;;;;;;22.35;100.00;99742.00;5013787;28;20119;-43
2023/09/22 10:29:32;;;;;;;7.65;1.02;;;;;;;22.40;100.00;99750.47;5013275;28;20068;-43
2023/09/22 10:34:51;;;;;;;5.57;1.10;;;;;;;22.54;100.00;99745.78;5013712;28;20093;-44
2023/09/22 10:37:26;;;;;;;3.55;0.82;;;;;;;22.58;100.00;99747.03;5021649;28;20095;-45
2023/09/22 10:40:14;;;;;;;4.70;0.85;;;;;;;22.62;100.00;99755.25;5018793;28;20051;-44
2023/09/22 10:42:45;;;;;;;4.07;0.95;;;;;;;22.65;100.00;99759.88;5016362;28;20424;-46
2023/09/22 10:45:14;;;;;;;5.80;0.90;;;;;;;22.67;100.00;99752.38;5022222;28;20127;-45
2023/09/22 10:47:49;;;;;;;5.22;1.10;;;;;;;22.69;100.00;99758.31;5029242;28;20054;-43
2023/09/22 10:50:25;;;;;;;4.35;1.52;;;;;;;22.72;100.00;99760.09;5011466;28;20057;-43
2023/09/22 10:52:53;;;;;;;;;;;;;;;22.77;100.00;99767.78;5015840;28;20542;-43
2023/09/22 10:55:40;;;;;;;6.00;1.00;;;;;;;22.73;100.00;99761.63;5009977;28;19980;-43
2023/09/22 10:58:16;;;;;;;10.00;1.30;;;;;;;22.73;100.00;99760.84;5010004;28;20049;-45
2023/09/22 11:01:00;;;;;;;4.68;1.20;;;;;;;22.73;100.00;99758.81;5009956;28;20049;-45
2023/09/22 11:03:28;;;;;;;11.63;1.15;;;;;;;22.74;100.00;99768.09;5019438;28;20188;-45
2023/09/22 11:06:00;;;;;;;5.20;1.05;;;;;;;22.78;100.00;99771.41;5011242;28;20049;-45
2023/09/22 11:08:27;;;;;;;10.02;1.10;;;;;;;22.81;100.00;99768.28;5011402;28;20137;-44
2023/09/22 11:10:55;;;;;;;6.55;1.05;;;;;;;22.79;100.00;99770.88;5015408;28;20558;-45
2023/09/22 11:13:23;;;;;;;6.88;0.90;;;;;;;22.81;100.00;99776.03;5013313;28;20053;-43
2023/09/22 11:15:59;;;;;;;6.40;1.33;;;;;;;22.81;100.00;99778.84;5017924;28;20130;-46
2023/09/22 11:18:35;;;;;;;8.30;1.48;;;;;;;22.84;100.00;99783.44;5022143;28;20053;-42
2023/09/22 11:21:08;;;;;;;5.05;1.15;;;;;;;22.90;100.00;99784.97;5016441;28;20173;-44
2023/09/22 11:23:38;;;;;;;3.97;0.95;;;;;;;22.95;100.00;99794.75;5018133;28;20080;-46
2023/09/22 11:26:10;;;;;;;8.77;1.75;;;;;;;22.88;100.00;99796.06;5017231;28;20487;-44
2023/09/22 11:28:43;;;;;;;8.13;1.20;;;;;;;22.80;100.00;99783.75;5028165;28;20045;-44
2023/09/22 11:31:15;;;;;;;6.38;1.17;;;;;;;22.93;100.00;99791.66;5016940;28;20054;-46
2023/09/22 11:33:43;;;;;;;12.55;1.70;;;;;;;22.94;100.00;99793.19;5020105;28;20045;-45